Time;durP1;ratioP1;P1;durP2;ratioP2;P2;SDS_P1;SDS_P2;PMS_P1;PMS_P2;Temp;Humidity;BMP_temperature;BMP_pressure;BME280_temperature;BME280_humidity;BME280_pressure;Samples;Min_cycle;Max_cycle;Signal;HPM_P1;HPM_P2
2022/05/04 00:00:49;;;;;;;5.22;4.45;;;;;;;10.96;100.00;98549.78;5039470;28;20025;-62
2022/05/04 00:03:14;;;;;;;6.63;4.28;;;;;;;10.97;100.00;98555.75;5038424;28;20112;-62
2022/05/04 00:05:40;;;;;;;5.45;3.90;;;;;;;10.95;100.00;98549.78;5042711;28;20095;-62
2022/05/04 00:08:05;;;;;;;5.72;4.35;;;;;;;10.86;100.00;98558.53;5042724;28;20043;-63
2022/05/04 00:10:31;;;;;;;7.57;4.75;;;;;;;10.84;100.00;98555.16;5038702;28;20062;-63
2022/05/04 00:12:58;;;;;;;4.68;4.28;;;;;;;10.81;100.00;98547.56;5038945;28;20119;-63
2022/05/04 00:15:24;;;;;;;5.57;4.40;;;;;;;10.94;100.00;98543.84;5042468;28;20064;-62
2022/05/04 00:17:50;;;;;;;4.65;4.13;;;;;;;10.91;100.00;98549.03;5041802;28;20083;-61
2022/05/04 00:20:15;;;;;;;7.20;5.18;;;;;;;10.93;100.00;98544.72;5037048;28;20471;-61
2022/05/04 00:22:41;;;;;;;4.07;3.65;;;;;;;10.91;100.00;98549.03;5039834;28;20037;-62
2022/05/04 00:25:07;;;;;;;6.00;4.30;;;;;;;11.05;100.00;98541.03;5043094;28;20049;-62
2022/05/04 00:27:34;;;;;;;5.10;4.13;;;;;;;11.13;100.00;98536.56;5041642;28;20025;-62
2022/05/04 00:30:00;;;;;;;4.50;4.07;;;;;;;11.14;100.00;98537.41;5038640;28;20063;-62
2022/05/04 00:32:26;;;;;;;5.20;3.60;;;;;;;11.03;100.00;98536.81;5040077;28;20112;-63
2022/05/04 00:34:52;;;;;;;4.95;4.18;;;;;;;10.98;100.00;98535.22;5042753;28;20029;-62
2022/05/04 00:37:17;;;;;;;5.10;4.28;;;;;;;10.98;100.00;98532.66;5040895;28;20337;-62
2022/05/04 00:39:42;;;;;;;4.80;4.30;;;;;;;10.99;100.00;98530.91;5038557;28;20037;-62
2022/05/04 00:42:14;;;;;;;6.97;6.30;;;;;;;10.97;100.00;98543.78;5040095;28;20494;-62
2022/05/04 00:44:41;;;;;;;6.47;4.68;;;;;;;10.94;100.00;98533.59;5042145;28;20040;-61
2022/05/04 00:47:08;;;;;;;4.35;3.97;;;;;;;10.92;100.00;98537.03;5040313;28;20033;-61
2022/05/04 00:49:34;;;;;;;4.97;4.30;;;;;;;10.88;100.00;98538.84;5037182;28;20044;-61
2022/05/04 00:52:00;;;;;;;5.93;3.85;;;;;;;10.87;100.00;98541.44;5041564;28;20025;-62
2022/05/04 00:54:26;;;;;;;7.72;4.25;;;;;;;10.88;100.00;98545.69;5044406;28;20037;-62
2022/05/04 00:56:53;;;;;;;4.88;4.38;;;;;;;10.86;100.00;98547.47;5043195;28;20044;-62
2022/05/04 00:59:21;;;;;;;5.05;3.80;;;;;;;10.90;100.00;98549.94;5042213;28;20574;-62
2022/05/04 01:01:47;;;;;;;4.22;3.83;;;;;;;10.96;100.00;98551.50;5045589;28;20040;-60
2022/05/04 01:04:12;;;;;;;4.90;4.28;;;;;;;11.03;100.00;98550.50;5045520;28;20097;-62
2022/05/04 01:06:38;;;;;;;5.18;4.32;;;;;;;10.99;100.00;98548.84;5040850;28;20024;-62
2022/05/04 01:09:04;;;;;;;4.90;4.15;;;;;;;11.02;100.00;98543.66;5042429;28;20056;-62
2022/05/04 01:11:29;;;;;;;5.78;3.78;;;;;;;10.96;100.00;98541.22;5045201;28;20456;-62
2022/05/04 01:14:04;;;;;;;5.97;4.68;;;;;;;10.98;100.00;98548.03;5044650;28;20051;-62
2022/05/04 01:16:31;;;;;;;6.47;4.68;;;;;;;11.00;100.00;98555.69;5040778;28;20666;-62
2022/05/04 01:18:56;;;;;;;5.43;4.43;;;;;;;10.93;100.00;98549.84;5041640;28;20040;-61
2022/05/04 01:21:22;;;;;;;5.65;4.38;;;;;;;10.88;100.00;98551.66;5042494;28;20532;-61
2022/05/04 01:23:48;;;;;;;5.90;4.47;;;;;;;10.98;100.00;98550.59;5044444;28;20426;-62
2022/05/04 01:26:17;;;;;;;4.80;4.40;;;;;;;10.94;100.00;98560.97;5041277;28;20115;-61
2022/05/04 01:28:43;;;;;;;5.50;4.63;;;;;;;10.94;100.00;98545.56;5041978;28;20535;-62
2022/05/04 01:31:09;;;;;;;5.38;4.43;;;;;;;10.97;100.00;98554.03;5041265;28;20078;-62
2022/05/04 01:33:35;;;;;;;4.70;4.20;;;;;;;10.98;100.00;98553.16;5040787;28;20494;-62
2022/05/04 01:36:00;;;;;;;4.88;4.18;;;;;;;10.95;100.00;98555.78;5041255;28;20037;-63
2022/05/04 01:38:26;;;;;;;6.32;3.85;;;;;;;11.08;100.00;98546.09;5043754;28;20037;-63
2022/05/04 01:40:51;;;;;;;7.22;5.00;;;;;;;11.11;100.00;98552.88;5045815;28;20542;-62
2022/05/04 01:43:16;;;;;;;4.32;3.90;;;;;;;11.17;100.00;98548.44;5043003;28;20033;-62
2022/05/04 01:45:42;;;;;;;4.95;4.18;;;;;;;11.24;100.00;98550.03;5041389;28;20047;-62
2022/05/04 01:48:07;;;;;;;7.50;3.40;;;;;;;11.15;100.00;98549.38;5044861;28;20033;-62
2022/05/04 01:50:33;;;;;;;3.95;3.58;;;;;;;11.16;100.00;98553.63;5045150;28;20395;-62
2022/05/04 01:52:58;;;;;;;4.75;4.22;;;;;;;11.25;100.00;98545.69;5041330;28;20858;-62
2022/05/04 01:55:25;;;;;;;4.50;3.92;;;;;;;11.30;100.00;98543.88;5040712;28;20040;-62
2022/05/04 01:57:51;;;;;;;4.05;3.63;;;;;;;11.39;100.00;98544.50;5040609;28;20041;-62
2022/05/04 02:00:16;;;;;;;5.13;4.65;;;;;;;11.26;100.00;98537.13;5042525;28;20387;-62
2022/05/04 02:02:43;;;;;;;4.00;3.65;;;;;;;11.19;100.00;98545.84;5040812;28;20033;-62
2022/05/04 02:05:09;;;;;;;5.28;3.97;;;;;;;11.18;100.00;98546.72;5040381;28;20033;-63
2022/05/04 02:07:36;;;;;;;3.80;3.42;;;;;;;11.15;100.00;98537.38;5040566;28;20299;-63
2022/05/04 02:10:03;;;;;;;4.53;4.03;;;;;;;11.12;100.00;98536.63;5040687;28;20025;-62
2022/05/04 02:12:29;;;;;;;4.30;3.75;;;;;;;11.09;100.00;98541.81;5040368;28;20079;-62
2022/05/04 02:14:55;;;;;;;5.90;4.55;;;;;;;11.10;100.00;98530.66;5040856;28;20530;-63
2022/05/04 02:17:20;;;;;;;4.65;4.03;;;;;;;11.06;100.00;98540.16;5044543;28;20043;-62
2022/05/04 02:19:46;;;;;;;5.22;3.92;;;;;;;10.93;100.00;98539.59;5041684;28;20286;-61
2022/05/04 02:22:11;;;;;;;5.18;3.60;;;;;;;10.92;100.00;98548.16;5014348;28;20250;-60
2022/05/04 02:24:36;;;;;;;4.32;3.97;;;;;;;10.93;100.00;98549.00;5020047;28;20131;-60
2022/05/04 02:27:02;;;;;;;5.70;4.75;;;;;;;10.92;100.00;98548.16;5042248;28;20035;-60
2022/05/04 02:29:28;;;;;;;5.45;4.95;;;;;;;11.00;100.00;98553.09;5044030;28;20483;-59
2022/05/04 02:31:53;;;;;;;7.57;4.55;;;;;;;10.93;100.00;98554.97;5040348;28;20032;-60
2022/05/04 02:34:18;;;;;;;6.55;4.80;;;;;;;10.81;100.00;98547.56;5041759;28;20036;-60
2022/05/04 02:39:27;;;;;;;6.22;4.45;;;;;;;10.83;100.00;98555.19;5042613;28;20076;-60
2022/05/04 02:41:54;;;;;;;4.80;4.40;;;;;;;10.79;100.00;98551.00;5040143;28;20495;-60
2022/05/04 02:44:20;;;;;;;4.57;3.88;;;;;;;10.79;100.00;98551.84;5042752;28;20033;-60
2022/05/04 02:46:48;;;;;;;4.88;4.35;;;;;;;10.73;100.00;98546.88;5044817;28;20037;-61
2022/05/04 02:49:14;;;;;;;4.88;4.40;;;;;;;10.78;100.00;98559.56;5041278;28;20033;-60
2022/05/04 02:51:39;;;;;;;4.88;4.35;;;;;;;10.79;100.00;98561.25;5039540;28;20036;-60
2022/05/04 02:54:05;;;;;;;5.10;4.20;;;;;;;10.80;100.00;98560.41;5039288;28;20395;-60
2022/05/04 02:56:30;;;;;;;4.55;4.15;;;;;;;10.75;100.00;98554.50;5039716;28;20040;-60
2022/05/04 02:58:56;;;;;;;5.95;4.97;;;;;;;10.77;100.00;98563.88;5039532;28;20698;-59
2022/05/04 03:04:06;;;;;;;4.35;4.00;;;;;;;10.78;100.00;98570.66;5043683;28;20082;-58
2022/05/04 03:06:33;;;;;;;4.78;4.28;;;;;;;10.78;100.00;98569.81;5043929;28;20032;-61
2022/05/04 03:08:58;;;;;;;4.87;3.90;;;;;;;10.83;100.00;98571.44;5039093;28;20082;-60
2022/05/04 03:14:08;;;;;;;5.45;4.95;;;;;;;10.84;100.00;98575.69;5039043;28;20387;-61
2022/05/04 03:16:36;;;;;;;5.18;4.55;;;;;;;10.86;100.00;98570.53;5038716;28;20061;-60
2022/05/04 03:19:03;;;;;;;6.35;5.50;;;;;;;10.97;100.00;98582.25;5039218;28;20496;-64
2022/05/04 03:21:28;;;;;;;5.68;5.18;;;;;;;10.93;100.00;98583.19;5041131;28;20044;-64
2022/05/04 03:23:54;;;;;;;5.45;4.90;;;;;;;10.99;100.00;98577.06;5042550;28;20037;-64
2022/05/04 03:26:20;;;;;;;6.18;4.93;;;;;;;11.01;100.00;98580.47;5041245;28;20065;-64
2022/05/04 03:28:45;;;;;;;5.38;4.88;;;;;;;11.04;100.00;98584.66;5039018;28;20035;-64
2022/05/04 03:31:11;;;;;;;5.85;5.25;;;;;;;10.91;100.00;98577.22;5037880;28;20471;-59
2022/05/04 03:33:36;;;;;;;5.28;4.25;;;;;;;10.90;100.00;98574.72;5040584;28;20024;-61
2022/05/04 03:36:02;;;;;;;5.15;4.22;;;;;;;10.88;100.00;98587.56;5040833;28;20032;-62
2022/05/04 03:38:28;;;;;;;7.75;5.05;;;;;;;10.84;100.00;98585.94;5038393;28;20386;-60
2022/05/04 03:40:53;;;;;;;8.63;4.97;;;;;;;10.89;100.00;98596.97;5040483;28;20562;-60
2022/05/04 03:43:18;;;;;;;7.47;5.13;;;;;;;10.80;100.00;98589.44;5038764;28;20473;-61
2022/05/04 03:45:44;;;;;;;6.20;5.70;;;;;;;10.73;100.00;98593.03;5037458;28;20570;-61
2022/05/04 03:48:09;;;;;;;7.72;5.80;;;;;;;10.72;100.00;98596.47;5037371;28;20033;-59
2022/05/04 03:50:34;;;;;;;5.72;5.22;;;;;;;10.64;100.00;98600.06;5038567;28;20043;-60
2022/05/04 03:53:00;;;;;;;9.82;5.43;;;;;;;10.57;100.00;98612.13;5036666;28;20371;-61
2022/05/04 03:55:25;;;;;;;6.13;5.22;;;;;;;10.66;100.00;98604.25;5036149;28;20487;-61
2022/05/04 03:57:51;;;;;;;5.32;4.82;;;;;;;10.64;100.00;98613.72;5037510;28;20376;-60
2022/05/04 04:00:16;;;;;;;5.93;5.32;;;;;;;10.69;100.00;98627.28;5042446;28;20025;-60
2022/05/04 04:02:42;;;;;;;8.67;7.10;;;;;;;10.73;100.00;98631.50;5038535;28;20064;-60
2022/05/04 04:05:08;;;;;;;6.23;4.70;;;;;;;10.78;100.00;98624.53;5038883;28;20467;-59
2022/05/04 04:07:34;;;;;;;6.45;5.85;;;;;;;10.81;100.00;98621.06;5039952;28;20143;-59
2022/05/04 04:09:59;;;;;;;7.57;5.43;;;;;;;10.66;100.00;98619.63;5042851;28;20036;-59
2022/05/04 04:12:25;;;;;;;6.73;5.00;;;;;;;10.60;100.00;98632.59;5042016;28;20033;-60
2022/05/04 04:14:50;;;;;;;7.63;4.70;;;;;;;10.60;100.00;98632.59;5037912;28;20434;-60
2022/05/04 04:17:15;;;;;;;6.80;5.70;;;;;;;10.63;100.00;98637.66;5040183;28;20483;-60
2022/05/04 04:19:41;;;;;;;6.27;5.60;;;;;;;10.63;100.00;98637.66;5042970;28;20029;-61
2022/05/04 04:22:06;;;;;;;6.77;5.53;;;;;;;10.69;100.00;98641.84;5041987;28;20072;-60
2022/05/04 04:24:32;;;;;;;6.40;5.00;;;;;;;10.65;100.00;98640.19;5037785;28;20037;-60
2022/05/04 04:26:57;;;;;;;11.37;5.97;;;;;;;10.71;100.00;98647.75;5040274;28;20485;-61
2022/05/04 04:29:22;;;;;;;6.97;5.87;;;;;;;10.69;100.00;98652.09;5046967;28;20481;-59
2022/05/04 04:31:48;;;;;;;7.20;5.35;;;;;;;10.66;100.00;98652.13;5047357;28;20132;-60
2022/05/04 04:34:13;;;;;;;8.27;5.87;;;;;;;10.65;100.00;98648.72;5045363;28;20402;-61
2022/05/04 04:36:39;;;;;;;6.88;5.72;;;;;;;10.73;100.00;98653.72;5047155;28;20410;-61
2022/05/04 04:39:04;;;;;;;7.85;6.38;;;;;;;10.81;100.00;98651.84;5049226;28;20585;-60
2022/05/04 04:41:30;;;;;;;7.25;6.40;;;;;;;10.83;100.00;98650.94;5046736;28;20605;-61
2022/05/04 04:43:56;;;;;;;7.57;5.90;;;;;;;10.95;100.00;98654.97;5044928;28;20025;-60
2022/05/04 04:46:22;;;;;;;8.10;5.65;;;;;;;11.04;100.00;98659.06;5047963;28;20028;-60
2022/05/04 04:48:47;;;;;;;9.95;6.82;;;;;;;11.18;100.00;98667.34;5049294;28;20037;-60
2022/05/04 04:51:13;;;;;;;10.50;9.40;;;;;;;11.28;100.00;98668.84;5046603;28;20033;-61
2022/05/04 04:53:38;;;;;;;7.97;7.18;;;;;;;11.33;100.00;98667.84;5045007;28;20028;-61
2022/05/04 04:56:04;;;;;;;5.88;5.35;;;;;;;11.44;100.00;98665.06;5048391;28;20035;-60
2022/05/04 04:58:30;;;;;;;7.88;6.32;;;;;;;11.57;100.00;98673.34;5048678;28;20060;-62
2022/05/04 05:00:56;;;;;;;6.68;5.53;;;;;;;11.62;100.00;98674.94;5045679;28;20456;-60
2022/05/04 05:03:22;;;;;;;6.70;5.32;;;;;;;11.59;100.00;98680.13;5043804;28;20033;-61
2022/05/04 05:05:48;;;;;;;6.53;5.80;;;;;;;11.71;100.00;98677.25;5048145;28;20036;-60
2022/05/04 05:08:13;;;;;;;6.28;5.78;;;;;;;11.82;100.00;98672.78;5048345;28;20025;-60
2022/05/04 05:10:39;;;;;;;7.57;6.05;;;;;;;11.98;100.00;98670.69;5044943;28;20056;-62
2022/05/04 05:13:05;;;;;;;6.47;5.70;;;;;;;12.09;100.00;98681.56;5045514;28;20067;-62
2022/05/04 05:18:17;;;;;;;6.05;5.45;;;;;;;12.34;100.00;98682.66;5047591;28;20157;-62
2022/05/04 05:20:42;;;;;;;7.00;6.05;;;;;;;12.50;100.00;98677.09;5044470;28;20499;-63
2022/05/04 05:23:08;;;;;;;7.95;6.30;;;;;;;12.64;100.00;98682.72;5046815;28;20136;-62
2022/05/04 05:25:33;;;;;;;7.63;5.63;;;;;;;12.79;100.00;98682.31;5043750;28;20033;-63
2022/05/04 05:27:59;;;;;;;5.70;5.20;;;;;;;12.90;100.00;98689.75;5043054;28;20127;-63
2022/05/04 05:30:25;;;;;;;8.27;6.07;;;;;;;13.04;100.00;98695.34;5043814;28;20115;-63
2022/05/04 05:32:50;;;;;;;7.80;5.97;;;;;;;13.11;100.00;98689.19;5047050;28;20041;-63
2022/05/04 05:35:16;;;;;;;7.47;5.80;;;;;;;13.19;100.00;98698.38;5048757;28;20029;-63
2022/05/04 05:37:41;;;;;;;6.97;6.07;;;;;;;13.36;100.00;98686.75;5046706;28;20120;-63
2022/05/04 05:40:07;;;;;;;6.70;5.97;;;;;;;13.46;100.00;98686.41;5041520;28;20086;-63
2022/05/04 05:42:34;;;;;;;7.22;6.05;;;;;;;13.66;100.00;98685.84;5040374;28;20310;-63
2022/05/04 05:44:59;;;;;;;6.50;5.90;;;;;;;13.78;100.00;98689.78;5040958;28;20052;-62
2022/05/04 05:47:25;;;;;;;8.18;6.80;;;;;;;13.88;100.00;98680.84;5041569;28;20021;-63
2022/05/04 05:49:50;;;;;;;6.82;6.10;;;;;;;14.08;100.00;98686.22;5045426;28;20485;-63
2022/05/04 05:52:16;;;;;;;7.20;6.60;;;;;;;14.19;100.00;98678.97;5040432;28;20191;-63
2022/05/04 05:54:41;;;;;;;6.57;5.97;;;;;;;14.35;100.00;98677.59;5041265;28;20085;-63
2022/05/04 05:57:06;;;;;;;6.72;6.13;;;;;;;14.44;100.00;98685.03;5039752;28;20486;-62
2022/05/04 05:59:32;;;;;;;6.43;5.78;;;;;;;14.53;100.00;98682.16;5046268;28;20025;-62
2022/05/04 06:01:57;;;;;;;7.22;6.53;;;;;;;14.67;100.00;98688.59;5044245;28;20474;-63
2022/05/04 06:04:23;;;;;;;6.80;6.20;;;;;;;14.86;100.00;98689.63;5041715;28;20079;-61
2022/05/04 06:06:48;;;;;;;6.00;5.40;;;;;;;14.93;100.00;98688.53;5041131;28;20990;-62
2022/05/04 06:09:14;;;;;;;8.40;7.38;;;;;;;15.04;100.00;98688.97;5040388;28;20322;-63
2022/05/04 06:11:39;;;;;;;6.78;6.05;;;;;;;14.99;100.00;98688.28;5039686;28;20540;-63
2022/05/04 06:14:05;;;;;;;8.95;6.55;;;;;;;14.93;100.00;98685.94;5040818;28;20025;-63
2022/05/04 06:16:30;;;;;;;7.75;6.68;;;;;;;14.98;100.00;98690.03;5042669;28;20061;-63
2022/05/04 06:18:56;;;;;;;7.18;6.47;;;;;;;14.90;100.00;98691.19;5044714;28;20044;-61
2022/05/04 06:21:22;;;;;;;6.05;5.50;;;;;;;15.08;100.00;98695.69;5042482;28;20075;-62
2022/05/04 06:23:47;;;;;;;6.93;6.25;;;;;;;15.23;100.00;98696.91;5040339;28;20029;-62
2022/05/04 06:26:13;;;;;;;7.22;6.53;;;;;;;15.23;100.00;98694.31;5040350;28;20111;-61
2022/05/04 06:28:38;;;;;;;6.30;5.70;;;;;;;15.46;100.00;98689.13;5043521;28;20391;-61
2022/05/04 06:36:32;;;;;;;6.15;5.65;;;;;;;16.03;100.00;98690.41;5043757;28;20095;-61
2022/05/04 06:38:57;;;;;;;6.50;5.85;;;;;;;16.17;100.00;98682.91;5044357;28;20033;-61
2022/05/04 06:41:23;;;;;;;6.53;5.80;;;;;;;16.04;100.00;98690.31;5021890;28;20064;-61
2022/05/04 06:43:48;;;;;;;8.25;5.78;;;;;;;16.26;100.00;98685.97;5040803;28;20037;-61
2022/05/04 06:46:15;;;;;;;7.22;6.03;;;;;;;16.42;100.00;98681.84;5043988;28;20040;-61
2022/05/04 06:48:41;;;;;;;6.70;6.07;;;;;;;16.62;99.81;98688.81;5042752;28;20468;-61
2022/05/04 06:51:06;;;;;;;7.07;5.78;;;;;;;16.68;99.04;98682.50;5039890;28;20086;-61
2022/05/04 06:53:33;;;;;;;8.98;6.40;;;;;;;16.76;98.09;98690.81;5040880;28;20039;-61
2022/05/04 06:55:58;;;;;;;7.07;6.47;;;;;;;16.83;96.61;98685.31;5043419;28;20612;-61
2022/05/04 06:58:24;;;;;;;7.40;5.95;;;;;;;16.90;96.52;98678.09;5041800;28;20446;-62
2022/05/04 07:00:49;;;;;;;7.03;6.07;;;;;;;16.98;95.05;98688.97;5040305;28;20033;-61
2022/05/04 07:03:15;;;;;;;8.38;7.63;;;;;;;16.90;94.62;98681.53;5041068;28;20043;-61
2022/05/04 07:05:40;;;;;;;7.18;6.57;;;;;;;17.08;94.92;98681.63;5043987;28;20602;-62
2022/05/04 07:08:06;;;;;;;7.40;6.70;;;;;;;17.25;93.03;98674.78;5041718;28;20418;-62
2022/05/04 07:10:31;;;;;;;8.73;6.82;;;;;;;17.34;91.49;98683.91;5039042;28;20029;-61
2022/05/04 07:12:57;;;;;;;10.18;7.03;;;;;;;17.31;91.03;98687.44;5041624;28;20029;-62
2022/05/04 07:15:22;;;;;;;6.72;6.13;;;;;;;17.60;89.60;98685.34;5042862;28;20131;-59
2022/05/04 07:17:48;;;;;;;7.75;6.00;;;;;;;17.65;88.00;98686.78;5041191;28;20043;-61
2022/05/04 07:20:13;;;;;;;6.97;6.22;;;;;;;17.80;90.15;98690.41;5038549;28;20131;-62
2022/05/04 07:22:39;;;;;;;8.10;6.55;;;;;;;17.53;92.07;98684.72;5041882;28;20021;-61
2022/05/04 07:25:05;;;;;;;7.47;6.78;;;;;;;17.15;92.47;98689.06;5043334;28;20047;-63
2022/05/04 07:27:30;;;;;;;9.95;8.75;;;;;;;17.29;94.43;98686.69;5040247;28;20032;-61
2022/05/04 07:29:56;;;;;;;6.70;6.05;;;;;;;17.43;93.87;98677.47;5037832;28;20029;-61
2022/05/04 07:32:21;;;;;;;7.30;6.70;;;;;;;17.52;92.88;98683.06;5041993;28;20036;-61
2022/05/04 07:34:46;;;;;;;7.15;6.05;;;;;;;17.61;90.43;98676.66;5040306;28;20293;-62
2022/05/04 07:37:12;;;;;;;6.38;5.78;;;;;;;17.82;90.37;98672.19;5038791;28;20376;-62
2022/05/04 07:42:24;;;;;;;8.07;7.28;;;;;;;18.36;85.89;98681.66;5043069;28;20088;-62
2022/05/04 07:45:12;;;;;;;6.90;6.30;;;;;;;18.43;82.35;98686.47;5042525;28;20300;-61
2022/05/04 07:47:38;;;;;;;6.60;6.07;;;;;;;18.86;81.79;98687.75;5042284;28;20076;-62
2022/05/04 07:50:05;;;;;;;6.93;6.20;;;;;;;19.01;76.56;98676.56;5038696;28;20033;-62
2022/05/04 07:52:32;;;;;;;8.55;7.85;;;;;;;18.55;80.23;98687.63;5037586;28;20025;-61
2022/05/04 07:54:57;;;;;;;8.90;7.80;;;;;;;18.23;79.47;98684.00;5038475;28;20033;-62
2022/05/04 07:57:23;;;;;;;9.95;8.80;;;;;;;17.99;82.44;98686.03;5038399;28;20044;-62
2022/05/04 08:05:21;;;;;;;9.43;7.95;;;;;;;19.32;72.13;98690.53;5038617;28;20425;-63
2022/05/04 08:07:46;;;;;;;6.93;6.30;;;;;;;19.72;67.15;98697.06;5038093;28;20029;-61
2022/05/04 08:10:12;;;;;;;7.63;6.93;;;;;;;19.74;67.48;98696.03;5043037;28;20037;-62
2022/05/04 08:12:37;;;;;;;9.18;8.38;;;;;;;19.42;76.07;98689.13;5041245;28;20031;-61
2022/05/04 08:15:04;;;;;;;7.63;6.97;;;;;;;19.88;76.92;98682.28;5038701;28;20160;-61
2022/05/04 08:17:30;;;;;;;7.95;7.25;;;;;;;19.89;76.77;98687.41;5038573;28;20720;-62
2022/05/04 08:19:55;;;;;;;7.82;7.13;;;;;;;19.71;75.57;98688.41;5042778;28;20044;-62
2022/05/04 08:22:20;;;;;;;8.55;7.65;;;;;;;19.71;76.08;98698.81;5039220;28;20028;-61
2022/05/04 08:24:46;;;;;;;11.80;7.57;;;;;;;19.57;78.91;98694.38;5037804;28;20443;-62
2022/05/04 08:27:11;;;;;;;8.63;7.93;;;;;;;19.72;78.04;98695.31;5038797;28;20105;-61
2022/05/04 08:29:37;;;;;;;10.20;8.95;;;;;;;19.78;76.57;98694.94;5042771;28;20036;-61
2022/05/04 08:32:02;;;;;;;10.48;9.52;;;;;;;19.53;79.18;98703.25;5041552;28;20465;-60
2022/05/04 08:34:28;;;;;;;10.60;9.45;;;;;;;19.32;79.03;98706.13;5038004;28;20033;-61
2022/05/04 08:36:53;;;;;;;11.10;9.02;;;;;;;19.35;79.83;98693.00;5040914;28;20095;-61
2022/05/04 08:39:19;;;;;;;8.73;7.88;;;;;;;19.39;78.12;98697.13;5042528;28;20485;-61
2022/05/04 08:41:45;;;;;;;9.90;8.65;;;;;;;19.56;76.57;98702.28;5040385;28;20037;-61
2022/05/04 08:44:12;;;;;;;19.25;10.90;;;;;;;19.52;74.50;98703.34;5038093;28;20566;-62
2022/05/04 08:46:42;;;;;;;8.32;7.50;;;;;;;19.75;74.19;98702.94;5040825;28;20025;-62
2022/05/04 08:49:10;;;;;;;8.27;7.47;;;;;;;19.64;71.83;98701.84;5043173;28;20494;-60
2022/05/04 08:51:36;;;;;;;8.65;7.70;;;;;;;19.78;72.34;98709.72;5040198;28;20116;-61
2022/05/04 08:54:04;;;;;;;14.80;11.50;;;;;;;19.82;71.93;98699.06;5039004;28;20113;-62
2022/05/04 08:56:31;;;;;;;9.10;7.20;;;;;;;20.14;72.82;98706.84;5041586;28;20064;-62
2022/05/04 08:58:56;;;;;;;8.82;8.05;;;;;;;20.35;69.00;98706.50;5042375;28;20025;-62
2022/05/04 09:01:24;;;;;;;9.25;7.90;;;;;;;19.97;72.51;98697.38;5038787;28;20033;-61
2022/05/04 09:03:50;;;;;;;8.23;7.53;;;;;;;19.68;73.16;98698.16;5038749;28;20032;-62
2022/05/04 09:06:31;;;;;;;7.68;7.05;;;;;;;20.00;71.75;98689.41;5037904;28;20033;-61
2022/05/04 09:08:56;;;;;;;7.63;6.90;;;;;;;19.86;71.58;98691.97;5037569;28;20565;-61
2022/05/04 09:11:24;;;;;;;8.57;7.45;;;;;;;19.78;70.14;98696.72;5037664;28;20152;-62
2022/05/04 09:13:50;;;;;;;7.68;6.97;;;;;;;20.13;69.53;98694.75;5038166;28;20037;-61
2022/05/04 09:16:29;;;;;;;7.80;6.93;;;;;;;20.23;68.16;98691.56;5039378;28;20059;-61
2022/05/04 09:18:54;;;;;;;10.50;7.57;;;;;;;20.41;68.94;98694.91;5041213;28;20124;-62
2022/05/04 09:21:23;;;;;;;11.93;7.20;;;;;;;20.80;68.26;98692.56;5041272;28;20509;-61
2022/05/04 09:23:53;;;;;;;8.77;7.78;;;;;;;20.80;68.06;98699.53;5043025;28;20040;-61
2022/05/04 09:26:20;;;;;;;8.13;7.25;;;;;;;20.70;68.00;98691.44;5043620;28;20745;-62
2022/05/04 09:28:59;;;;;;;7.75;6.97;;;;;;;21.00;64.78;98691.38;5040454;28;20029;-62
2022/05/04 09:31:26;;;;;;;12.70;7.25;;;;;;;21.10;64.75;98684.66;5041430;28;20029;-61
2022/05/04 09:33:54;;;;;;;8.82;7.75;;;;;;;21.16;65.27;98686.94;5043779;28;20033;-62
2022/05/04 09:36:32;;;;;;;8.73;7.82;;;;;;;20.97;62.18;98689.78;5044253;28;20067;-61
2022/05/04 09:47:21;;;;;;;9.63;8.60;;;;;;;20.74;66.14;98685.13;5043680;28;20135;-61
2022/05/04 09:49:48;;;;;;;8.20;7.47;;;;;;;21.03;64.33;98685.97;5041610;28;20051;-59
2022/05/04 09:52:16;;;;;;;9.38;8.45;;;;;;;21.04;64.15;98684.22;5041051;28;20123;-63
2022/05/04 09:54:41;;;;;;;11.98;9.07;;;;;;;20.93;62.52;98677.84;5040484;28;20037;-64
2022/05/04 09:57:07;;;;;;;7.95;7.18;;;;;;;20.96;62.90;98680.28;5040900;28;20053;-63
2022/05/04 09:59:39;;;;;;;10.23;8.90;;;;;;;20.75;63.78;98670.31;5041852;28;20160;-63
2022/05/04 10:02:07;;;;;;;9.18;8.35;;;;;;;20.71;63.92;98669.63;5042575;28;20033;-62
2022/05/04 10:04:34;;;;;;;8.55;7.65;;;;;;;20.70;63.66;98669.75;5044954;28;20036;-63
2022/05/04 10:07:01;;;;;;;8.13;7.38;;;;;;;21.01;65.43;98663.50;5041926;28;20059;-63
2022/05/04 10:09:27;;;;;;;9.65;8.70;;;;;;;20.83;63.84;98671.53;5040943;28;20471;-63
2022/05/04 10:11:59;;;;;;;8.35;7.47;;;;;;;20.95;63.78;98667.34;5044954;28;20139;-64
2022/05/04 10:14:29;;;;;;;8.95;8.15;;;;;;;21.27;66.03;98661.03;5044573;28;20044;-64
2022/05/04 10:17:11;;;;;;;9.32;8.40;;;;;;;21.15;61.93;98668.78;5039193;28;20088;-62
2022/05/04 10:19:52;;;;;;;11.48;8.00;;;;;;;21.11;62.41;98665.47;5041790;28;20049;-64
2022/05/04 10:22:26;;;;;;;8.68;7.97;;;;;;;21.38;60.90;98663.00;5044563;28;20037;-64
2022/05/04 10:24:55;;;;;;;8.98;7.95;;;;;;;21.28;61.90;98660.09;5042376;28;20094;-64
2022/05/04 10:27:23;;;;;;;10.95;9.95;;;;;;;20.87;61.92;98659.16;5038634;28;20872;-63
2022/05/04 10:32:44;;;;;;;8.98;8.15;;;;;;;21.08;61.65;98646.59;5044977;28;20110;-63
2022/05/04 10:35:37;;;;;;;10.63;9.52;;;;;;;21.08;63.20;98644.81;5040427;28;20029;-62
2022/05/04 10:38:15;;;;;;;8.23;7.53;;;;;;;21.40;62.22;98648.06;5040313;28;20060;-63
2022/05/04 10:40:50;;;;;;;11.13;9.20;;;;;;;21.20;60.73;98645.88;5040010;28;20594;-62
2022/05/04 10:43:17;;;;;;;;;;;;;;;21.47;61.15;98636.31;5039956;28;20037;-65
2022/05/04 10:45:49;;;;;;;9.90;8.90;;;;;;;21.66;61.70;98629.00;5040473;28;19917;-60
2022/05/04 10:48:18;;;;;;;10.18;8.32;;;;;;;21.65;60.40;98632.53;5039593;28;20534;-59
2022/05/04 10:50:52;;;;;;;11.10;10.00;;;;;;;21.50;59.49;98630.91;5038971;28;20037;-61
2022/05/04 10:53:23;;;;;;;10.38;9.45;;;;;;;21.54;59.47;98616.72;5039551;28;20032;-62
2022/05/04 10:56:01;;;;;;;9.90;8.90;;;;;;;21.83;59.47;98613.09;5039971;28;20170;-62
2022/05/04 10:58:43;;;;;;;8.68;7.22;;;;;;;22.12;59.33;98599.91;5043527;28;20064;-61
2022/05/04 11:01:13;;;;;;;11.15;9.52;;;;;;;21.74;59.24;98603.22;5036387;28;20060;-62
2022/05/04 11:03:55;;;;;;;10.55;9.55;;;;;;;21.87;58.16;98604.13;5042324;28;20437;-62
2022/05/04 11:06:32;;;;;;;11.00;9.90;;;;;;;21.90;57.67;98602.25;5041977;28;20492;-63
2022/05/04 11:09:04;;;;;;;9.77;8.68;;;;;;;21.80;58.19;98600.25;5040680;28;20033;-62
2022/05/04 11:11:30;;;;;;;9.98;9.00;;;;;;;21.54;59.98;98608.91;5039424;28;20052;-61
2022/05/04 11:13:55;;;;;;;10.05;8.98;;;;;;;21.20;60.29;98610.19;5039754;28;20072;-60
2022/05/04 11:16:26;;;;;;;9.95;7.57;;;;;;;21.24;61.22;98616.88;5041687;28;20148;-58
2022/05/04 11:18:52;;;;;;;13.43;8.25;;;;;;;21.01;61.87;98622.66;5044351;28;20513;-59
2022/05/04 11:21:19;;;;;;;11.00;7.50;;;;;;;21.03;63.53;98627.78;5041318;28;20086;-60
2022/05/04 11:23:46;;;;;;;9.13;8.20;;;;;;;21.01;65.35;98632.22;5038858;28;20039;-60
2022/05/04 11:26:25;;;;;;;9.48;8.13;;;;;;;20.82;63.42;98627.31;5042108;28;20072;-60
2022/05/04 11:28:52;;;;;;;9.30;8.48;;;;;;;20.71;65.04;98633.16;5044047;28;20040;-59
2022/05/04 11:31:19;;;;;;;9.13;7.78;;;;;;;20.72;65.13;98640.06;5039878;28;20433;-59
2022/05/04 11:33:46;;;;;;;8.82;8.02;;;;;;;20.61;63.90;98632.06;5039004;28;20037;-60
2022/05/04 11:36:12;;;;;;;8.02;7.30;;;;;;;20.54;63.60;98638.53;5043787;28;20455;-64
2022/05/04 11:38:38;;;;;;;9.20;7.63;;;;;;;20.53;65.82;98642.09;5043087;28;20029;-59
2022/05/04 11:41:04;;;;;;;10.35;7.88;;;;;;;20.45;69.30;98636.50;5039079;28;20415;-61
2022/05/04 11:43:34;;;;;;;9.50;8.52;;;;;;;20.45;75.97;98634.72;5039570;28;20544;-61
2022/05/04 11:46:11;;;;;;;8.93;7.97;;;;;;;20.45;80.65;98626.88;5043603;28;20061;-61
2022/05/04 11:48:44;;;;;;;9.73;8.82;;;;;;;20.49;82.89;98619.75;5042393;28;20051;-61
2022/05/04 11:51:12;;;;;;;8.52;7.88;;;;;;;20.54;86.76;98622.91;5039041;28;20076;-62
2022/05/04 11:53:38;;;;;;;8.50;7.72;;;;;;;20.50;89.78;98621.41;5040480;28;20033;-60
2022/05/04 11:56:06;;;;;;;8.50;7.80;;;;;;;20.36;94.71;98618.81;5043429;28;20286;-62
2022/05/04 11:58:35;;;;;;;7.57;6.88;;;;;;;20.23;95.11;98625.63;5041469;28;20546;-61
2022/05/04 12:01:03;;;;;;;9.23;8.20;;;;;;;20.12;91.07;98621.03;5038571;28;20037;-62
2022/05/04 12:03:32;;;;;;;8.48;7.60;;;;;;;20.06;84.45;98630.03;5040694;28;20434;-62